Marks, Mississippi
Current Conditions -  °F | °C
As of 3:15 PM on Saturday 22 Nov 2014 (Local Time) from KCKM Reporting Station
Clear Clear  
Wind Chill: 68°   Ceiling: Unl
Heat Index: 68°   Visibility: 10mi
Dew Point: 50°   Wind: 12mph
Humidity: 52%   Direction: 170°S
Pressure: 30.07"   Gusts: NA
Location:  34.26°N, 90.27°W
Report Text: KCKM 222115Z AUTO 17010KT 10SM CLR 20/10 A3007 RMK AO1
Loading
Personal Weather Stations






























Interactive Weather Map New forecast layout! Learn more

10-Day Weather Forecast

Advertisements
Track Severe Weather on mobile